Time;durP1;ratioP1;P1;durP2;ratioP2;P2;SDS_P1;SDS_P2;PMS_P1;PMS_P2;Temp;Humidity;BMP_temperature;BMP_pressure;BME280_temperature;BME280_humidity;BME280_pressure;Samples;Min_cycle;Max_cycle;Signal;HPM_P1;HPM_P2
2023/09/30 00:00:46;;;;;;;7.97;2.97;;;11.60;99.90;;;;;;4976880;28;20170;-77
2023/09/30 00:03:12;;;;;;;8.30;3.40;;;11.60;99.90;;;;;;4976524;28;20425;-78
2023/09/30 00:05:38;;;;;;;15.70;3.23;;;11.60;99.90;;;;;;4975054;28;20182;-76
2023/09/30 00:08:04;;;;;;;8.80;3.53;;;11.60;99.90;;;;;;4976272;28;20174;-78
2023/09/30 00:10:30;;;;;;;6.93;3.20;;;11.60;99.90;;;;;;4975751;28;20221;-78
2023/09/30 00:12:57;;;;;;;9.33;3.00;;;11.60;99.90;;;;;;4974890;28;20355;-78
2023/09/30 00:15:22;;;;;;;6.73;3.17;;;11.60;99.90;;;;;;4975847;28;20174;-78
2023/09/30 00:17:48;;;;;;;12.67;3.67;;;11.50;99.90;;;;;;4973116;28;20182;-76
2023/09/30 00:20:17;;;;;;;12.00;3.43;;;11.50;99.90;;;;;;4972556;28;20595;-76
2023/09/30 00:22:43;;;;;;;10.63;3.30;;;11.50;99.90;;;;;;4973179;28;20213;-75
2023/09/30 00:25:10;;;;;;;10.20;2.93;;;11.60;99.90;;;;;;4973933;28;20550;-76
2023/09/30 00:27:35;;;;;;;12.63;3.50;;;11.50;99.90;;;;;;4975388;28;20260;-78
2023/09/30 00:30:01;;;;;;;5.87;3.17;;;11.50;99.90;;;;;;4975017;28;20217;-78
2023/09/30 00:32:26;;;;;;;9.83;3.93;;;11.50;99.90;;;;;;4973789;28;20225;-78
2023/09/30 00:34:53;;;;;;;13.27;3.50;;;11.50;99.90;;;;;;4973944;28;20530;-76
2023/09/30 00:37:19;;;;;;;10.20;3.47;;;11.50;99.90;;;;;;4974163;28;20174;-76
2023/09/30 00:39:44;;;;;;;6.77;3.00;;;11.50;99.90;;;;;;4973569;28;20619;-76
2023/09/30 00:42:10;;;;;;;7.43;3.10;;;11.50;99.90;;;;;;4973764;28;20620;-78
2023/09/30 00:44:36;;;;;;;9.77;3.40;;;11.50;99.90;;;;;;4974720;28;20178;-79
2023/09/30 00:47:02;;;;;;;8.63;3.50;;;11.50;99.90;;;;;;4974652;28;20186;-78
2023/09/30 00:49:28;;;;;;;9.27;3.57;;;11.50;99.90;;;;;;4973283;28;20186;-76
2023/09/30 00:51:55;;;;;;;7.70;3.27;;;11.50;99.90;;;;;;4973240;28;20688;-76
2023/09/30 00:54:23;;;;;;;10.60;3.40;;;11.50;99.90;;;;;;4972126;28;20229;-76
2023/09/30 00:56:51;;;;;;;13.90;3.60;;;11.50;99.90;;;;;;4972824;28;20171;-75
2023/09/30 00:59:17;;;;;;;13.23;3.67;;;11.50;99.90;;;;;;4971906;28;20557;-76
2023/09/30 01:01:43;;;;;;;10.90;3.27;;;11.50;99.90;;;;;;4973234;28;20204;-75
2023/09/30 01:04:10;;;;;;;9.13;3.60;;;11.50;99.90;;;;;;4973359;28;20182;-76
2023/09/30 01:06:36;;;;;;;13.57;3.53;;;11.50;99.90;;;;;;4973301;28;20189;-76
2023/09/30 01:09:02;;;;;;;7.13;3.63;;;11.50;99.90;;;;;;4971925;28;20194;-76
2023/09/30 01:11:28;;;;;;;10.90;4.43;;;11.50;99.90;;;;;;4973150;28;20237;-77
2023/09/30 01:13:55;;;;;;;7.27;3.57;;;11.50;99.90;;;;;;4973257;28;20205;-76
2023/09/30 01:16:21;;;;;;;12.20;4.67;;;11.50;99.90;;;;;;4972141;28;20261;-76
2023/09/30 01:18:46;;;;;;;13.03;3.60;;;11.50;99.90;;;;;;4973279;28;20209;-76
2023/09/30 01:21:12;;;;;;;10.23;4.20;;;11.50;99.90;;;;;;4973206;28;20190;-77
2023/09/30 01:23:38;;;;;;;7.97;3.50;;;11.50;99.90;;;;;;4973271;28;20174;-76
2023/09/30 01:26:08;;;;;;;8.27;3.63;;;11.50;99.90;;;;;;4973483;28;20545;-76
2023/09/30 01:28:34;;;;;;;9.17;3.90;;;11.60;99.90;;;;;;4972351;28;20205;-78
2023/09/30 01:31:00;;;;;;;8.43;3.63;;;11.60;99.90;;;;;;4972378;28;20183;-78
2023/09/30 01:33:26;;;;;;;12.40;3.97;;;11.60;99.90;;;;;;4974113;28;20206;-78
2023/09/30 01:35:52;;;;;;;8.30;3.67;;;11.60;99.90;;;;;;4972934;28;20553;-77
2023/09/30 01:38:18;;;;;;;12.00;4.20;;;11.60;99.90;;;;;;4972834;28;20200;-78
2023/09/30 01:40:43;;;;;;;7.63;3.93;;;11.60;99.90;;;;;;4973170;28;20553;-78
2023/09/30 01:43:09;;;;;;;10.33;4.20;;;11.70;99.90;;;;;;4971770;28;20203;-76
2023/09/30 01:45:35;;;;;;;10.87;4.53;;;11.70;99.90;;;;;;4971576;28;20277;-76
2023/09/30 01:48:02;;;;;;;11.83;3.60;;;11.70;99.90;;;;;;4973246;28;20178;-76
2023/09/30 01:50:27;;;;;;;9.90;3.77;;;11.70;99.90;;;;;;4971638;28;20272;-76
2023/09/30 01:52:53;;;;;;;11.27;4.30;;;11.60;99.90;;;;;;4972697;28;20678;-77
2023/09/30 01:55:18;;;;;;;11.43;4.60;;;11.60;99.90;;;;;;4972821;28;20673;-76
2023/09/30 01:57:44;;;;;;;9.77;4.03;;;11.80;99.90;;;;;;4972865;28;20181;-76
2023/09/30 02:00:10;;;;;;;8.37;4.07;;;11.50;99.90;;;;;;4971517;28;20638;-76
2023/09/30 02:02:36;;;;;;;9.40;3.90;;;11.60;99.90;;;;;;4972832;28;20215;-77
2023/09/30 02:05:02;;;;;;;10.47;4.60;;;11.60;99.90;;;;;;4972994;28;20209;-77
2023/09/30 02:07:29;;;;;;;7.70;3.87;;;11.60;99.90;;;;;;4972822;28;20178;-76
2023/09/30 02:09:55;;;;;;;8.97;4.10;;;11.50;99.90;;;;;;4975876;28;20229;-76
2023/09/30 02:12:20;;;;;;;11.43;4.00;;;11.50;99.90;;;;;;4976276;28;20666;-77
2023/09/30 02:14:46;;;;;;;9.27;4.23;;;11.40;99.90;;;;;;4976132;28;20205;-77
2023/09/30 02:17:13;;;;;;;8.00;4.13;;;11.40;99.90;;;;;;4974955;28;20178;-76
2023/09/30 02:19:40;;;;;;;15.37;4.40;;;11.40;99.90;;;;;;4976306;28;20575;-76
2023/09/30 02:22:06;;;;;;;8.73;3.87;;;11.40;99.90;;;;;;4976148;28;20201;-76
2023/09/30 02:24:32;;;;;;;14.03;4.00;;;11.30;99.90;;;;;;4974981;28;20244;-77
2023/09/30 02:26:58;;;;;;;10.77;4.53;;;11.30;99.90;;;;;;4976730;28;20627;-77
2023/09/30 02:29:23;;;;;;;7.37;4.47;;;11.30;99.90;;;;;;4974868;28;20193;-77
2023/09/30 02:31:49;;;;;;;11.23;4.27;;;11.40;99.90;;;;;;4976103;28;20205;-77
2023/09/30 02:34:15;;;;;;;11.27;4.90;;;11.20;99.90;;;;;;4974751;28;20178;-77
2023/09/30 02:36:41;;;;;;;10.90;4.97;;;11.20;99.90;;;;;;4974864;28;20529;-77
2023/09/30 02:39:09;;;;;;;12.07;4.73;;;11.10;99.90;;;;;;4974560;28;20201;-76
2023/09/30 02:41:34;;;;;;;7.50;3.90;;;11.10;99.90;;;;;;4974372;28;20198;-77
2023/09/30 02:44:00;;;;;;;8.17;4.17;;;11.10;99.90;;;;;;4975983;28;20635;-77
2023/09/30 02:46:27;;;;;;;7.10;3.80;;;11.10;99.90;;;;;;4975846;28;20179;-77
2023/09/30 02:48:53;;;;;;;11.20;3.40;;;11.10;99.90;;;;;;4975646;28;20519;-77
2023/09/30 02:51:19;;;;;;;11.73;3.67;;;11.10;99.90;;;;;;4975545;28;20174;-76
2023/09/30 02:53:45;;;;;;;11.30;4.23;;;11.10;99.90;;;;;;4974103;28;20750;-76
2023/09/30 02:56:10;;;;;;;11.03;3.93;;;11.10;99.90;;;;;;4975586;28;20167;-77
2023/09/30 02:58:35;;;;;;;8.87;3.83;;;11.10;99.90;;;;;;4975582;28;20265;-77
2023/09/30 03:01:01;;;;;;;8.00;3.70;;;11.00;99.90;;;;;;4975784;28;20262;-76
2023/09/30 03:03:27;;;;;;;9.03;4.10;;;11.00;99.90;;;;;;4974016;28;20208;-77
2023/09/30 03:05:54;;;;;;;9.77;3.53;;;10.90;99.90;;;;;;4975507;28;20178;-77
2023/09/30 03:08:20;;;;;;;8.80;3.70;;;10.80;99.90;;;;;;4974238;28;20187;-77
2023/09/30 03:10:46;;;;;;;14.87;3.63;;;10.80;99.90;;;;;;4974255;28;20188;-77
2023/09/30 03:13:11;;;;;;;13.10;3.53;;;10.80;99.90;;;;;;4975200;28;20205;-77
2023/09/30 03:15:38;;;;;;;7.47;3.43;;;10.80;99.90;;;;;;4975773;28;20170;-77
2023/09/30 03:18:04;;;;;;;11.50;3.83;;;10.80;99.90;;;;;;4975799;28;20167;-76
2023/09/30 03:20:30;;;;;;;9.37;4.40;;;10.70;99.90;;;;;;4974476;28;20175;-77
2023/09/30 03:22:57;;;;;;;10.20;3.53;;;10.70;99.90;;;;;;4973680;28;20198;-77
2023/09/30 03:25:23;;;;;;;9.00;3.77;;;10.80;99.90;;;;;;4975061;28;20175;-77
2023/09/30 03:27:49;;;;;;;11.67;4.23;;;10.70;99.90;;;;;;4973887;28;20557;-77
2023/09/30 03:30:16;;;;;;;7.33;3.80;;;10.60;99.90;;;;;;4975061;28;20508;-76
2023/09/30 03:32:42;;;;;;;9.90;3.80;;;10.60;99.90;;;;;;4974762;28;20705;-78
2023/09/30 03:35:10;;;;;;;10.27;3.83;;;10.60;99.90;;;;;;4973561;28;20185;-76
2023/09/30 03:37:37;;;;;;;10.50;3.90;;;10.60;99.90;;;;;;4973415;28;20646;-77
2023/09/30 03:40:13;;;;;;;9.47;4.17;;;10.60;99.90;;;;;;4973591;28;20170;-76
2023/09/30 03:42:40;;;;;;;10.17;3.93;;;10.50;99.90;;;;;;4974106;28;20190;-78
2023/09/30 03:45:09;;;;;;;13.97;3.80;;;10.50;99.90;;;;;;4973990;28;20206;-76
2023/09/30 03:47:38;;;;;;;9.43;4.47;;;10.50;99.90;;;;;;4973137;28;20178;-76
2023/09/30 03:50:04;;;;;;;13.50;4.27;;;10.60;99.90;;;;;;4973196;28;20197;-76
2023/09/30 03:52:33;;;;;;;6.90;3.80;;;10.50;99.90;;;;;;4974612;28;20281;-77
2023/09/30 03:54:59;;;;;;;8.63;3.83;;;10.50;99.90;;;;;;4964885;28;20186;-77
2023/09/30 03:57:26;;;;;;;12.13;3.73;;;10.50;99.90;;;;;;4964119;28;20229;-77
2023/09/30 03:59:52;;;;;;;12.57;3.90;;;10.40;99.90;;;;;;4972635;28;20662;-77
2023/09/30 04:02:19;;;;;;;9.00;3.87;;;10.50;99.90;;;;;;4973105;28;20209;-77
2023/09/30 04:04:46;;;;;;;9.07;4.23;;;10.50;99.90;;;;;;4974464;28;20182;-77
2023/09/30 04:07:11;;;;;;;10.43;3.87;;;10.60;99.90;;;;;;4973762;28;20282;-80
2023/09/30 04:09:37;;;;;;;12.60;3.90;;;10.50;99.90;;;;;;4973005;28;20181;-78
2023/09/30 04:12:02;;;;;;;7.43;4.47;;;10.50;99.90;;;;;;4974866;28;20309;-78
2023/09/30 04:14:28;;;;;;;10.30;4.43;;;10.50;99.90;;;;;;4975076;28;20525;-79
2023/09/30 04:16:54;;;;;;;8.97;3.53;;;10.50;99.90;;;;;;4973656;28;20186;-80
2023/09/30 04:19:20;;;;;;;15.40;4.23;;;10.50;99.90;;;;;;4976277;28;20261;-79
2023/09/30 04:21:45;;;;;;;9.60;3.63;;;10.60;99.90;;;;;;4974907;28;20194;-77
2023/09/30 04:24:11;;;;;;;8.83;3.40;;;10.60;99.90;;;;;;4974186;28;20248;-76
2023/09/30 04:26:36;;;;;;;12.07;4.33;;;10.50;99.90;;;;;;4972903;28;20190;-76
2023/09/30 04:29:10;;;;;;;15.70;4.17;;;10.50;99.90;;;;;;4973739;28;20175;-77
2023/09/30 04:31:38;;;;;;;7.87;3.77;;;10.40;99.90;;;;;;4972735;28;20260;-76
2023/09/30 04:34:04;;;;;;;12.27;4.40;;;10.40;99.90;;;;;;4972679;28;20210;-76
2023/09/30 04:36:30;;;;;;;8.07;3.93;;;10.50;99.90;;;;;;4972873;28;20240;-77
2023/09/30 04:38:56;;;;;;;7.60;4.27;;;10.50;99.90;;;;;;4973410;28;20201;-76
2023/09/30 04:41:21;;;;;;;10.83;3.80;;;10.40;99.90;;;;;;4972465;28;20307;-76
2023/09/30 04:43:47;;;;;;;11.93;4.83;;;10.50;99.90;;;;;;4973589;28;20598;-76
2023/09/30 04:46:13;;;;;;;7.57;4.10;;;10.40;99.90;;;;;;4972363;28;20194;-76
2023/09/30 04:48:39;;;;;;;10.80;4.57;;;10.40;99.90;;;;;;4972309;28;20639;-76
2023/09/30 04:51:09;;;;;;;9.43;4.00;;;10.40;99.90;;;;;;4973452;28;20182;-76
2023/09/30 04:53:34;;;;;;;10.10;3.90;;;10.40;99.90;;;;;;4972184;28;20216;-76
2023/09/30 04:56:01;;;;;;;10.10;4.67;;;10.40;99.90;;;;;;4972249;28;20269;-76
2023/09/30 04:58:27;;;;;;;10.03;4.60;;;10.40;99.90;;;;;;4973585;28;20206;-76
2023/09/30 05:00:52;;;;;;;10.83;4.20;;;10.40;99.90;;;;;;4973419;28;20602;-76
2023/09/30 05:03:19;;;;;;;10.00;4.23;;;10.30;99.90;;;;;;4973275;28;20210;-76
2023/09/30 05:05:44;;;;;;;12.13;4.67;;;10.30;99.90;;;;;;4973590;28;20216;-76
2023/09/30 05:08:12;;;;;;;9.57;4.37;;;10.20;99.90;;;;;;4973219;28;20538;-76
2023/09/30 05:10:38;;;;;;;9.37;4.47;;;10.20;99.90;;;;;;4971932;28;20258;-76
2023/09/30 05:13:03;;;;;;;8.60;4.60;;;10.20;99.90;;;;;;4973104;28;20316;-76
2023/09/30 05:15:32;;;;;;;8.57;4.80;;;10.20;99.90;;;;;;4973160;28;20178;-76
2023/09/30 05:17:57;;;;;;;9.50;4.63;;;10.20;99.90;;;;;;4973265;28;20166;-76
2023/09/30 05:20:24;;;;;;;10.07;5.27;;;10.20;99.90;;;;;;4971913;28;20182;-76
2023/09/30 05:22:50;;;;;;;12.97;5.30;;;10.20;99.90;;;;;;4973373;28;20205;-76
2023/09/30 05:25:16;;;;;;;11.20;4.57;;;10.20;99.90;;;;;;4973140;28;20205;-76
2023/09/30 05:27:43;;;;;;;10.23;4.90;;;10.20;99.90;;;;;;4973082;28;20183;-76
2023/09/30 05:30:10;;;;;;;13.83;4.93;;;10.10;99.90;;;;;;4973070;28;20257;-76
2023/09/30 05:32:38;;;;;;;15.70;5.57;;;10.10;99.90;;;;;;4972924;28;20207;-76
2023/09/30 05:35:05;;;;;;;10.30;4.77;;;10.10;99.90;;;;;;4971573;28;20182;-76
2023/09/30 05:37:31;;;;;;;12.60;5.43;;;10.10;99.90;;;;;;4971369;28;20229;-76
2023/09/30 05:39:57;;;;;;;9.60;5.50;;;10.10;99.90;;;;;;4973109;28;20623;-76
2023/09/30 05:42:22;;;;;;;10.00;5.20;;;10.10;99.90;;;;;;4972924;28;20273;-76
2023/09/30 05:44:48;;;;;;;9.63;5.60;;;10.00;99.90;;;;;;4974440;28;20599;-75
2023/09/30 05:47:15;;;;;;;10.47;5.20;;;10.00;99.90;;;;;;4975380;28;20270;-76
2023/09/30 05:49:41;;;;;;;8.23;5.07;;;10.00;99.90;;;;;;4976628;28;20265;-77
2023/09/30 05:52:07;;;;;;;8.73;5.30;;;10.00;99.90;;;;;;4975241;28;20198;-76
2023/09/30 05:54:32;;;;;;;14.50;5.50;;;10.00;99.90;;;;;;4975252;28;20367;-76
2023/09/30 05:57:00;;;;;;;12.53;5.10;;;9.90;99.90;;;;;;4976633;28;20254;-76
2023/09/30 05:59:25;;;;;;;11.73;4.77;;;9.90;99.90;;;;;;4975020;28;20635;-76
2023/09/30 06:01:51;;;;;;;11.00;4.77;;;9.90;99.90;;;;;;4976514;28;20191;-76
2023/09/30 06:04:17;;;;;;;11.27;5.10;;;9.80;99.90;;;;;;4975068;28;20193;-76
2023/09/30 06:06:42;;;;;;;8.67;4.97;;;9.90;99.90;;;;;;4976460;28;20626;-75
2023/09/30 06:09:08;;;;;;;10.20;4.50;;;9.90;99.90;;;;;;4976473;28;20221;-76
2023/09/30 06:11:35;;;;;;;12.33;4.67;;;9.90;99.90;;;;;;4974818;28;20202;-76
2023/09/30 06:14:01;;;;;;;10.33;4.93;;;9.90;99.90;;;;;;4974783;28;20206;-76
2023/09/30 06:16:28;;;;;;;12.37;5.73;;;10.00;99.90;;;;;;4976187;28;20166;-76
2023/09/30 06:18:53;;;;;;;12.50;6.13;;;10.00;99.90;;;;;;4974806;28;20178;-76
2023/09/30 06:21:20;;;;;;;14.87;7.20;;;10.10;99.90;;;;;;4975936;28;20632;-77
2023/09/30 06:23:51;;;;;;;15.40;7.93;;;10.10;99.90;;;;;;4975983;28;20203;-76
2023/09/30 06:26:18;;;;;;;20.63;9.47;;;10.20;99.90;;;;;;4976006;28;20245;-76
2023/09/30 06:28:44;;;;;;;19.10;8.47;;;10.30;99.90;;;;;;4976169;28;20269;-76
2023/09/30 06:31:10;;;;;;;17.53;8.40;;;10.40;99.90;;;;;;4974461;28;20178;-77
2023/09/30 06:33:38;;;;;;;20.50;9.00;;;10.50;99.90;;;;;;4974503;28;20209;-76
2023/09/30 06:36:13;;;;;;;21.17;9.53;;;10.50;99.90;;;;;;4975681;28;20190;-76
2023/09/30 06:38:40;;;;;;;16.17;9.03;;;10.60;99.90;;;;;;4974337;28;20248;-76
2023/09/30 06:41:05;;;;;;;18.30;8.67;;;10.60;99.90;;;;;;4975637;28;20191;-76
2023/09/30 06:43:33;;;;;;;18.87;9.60;;;10.60;99.90;;;;;;4975630;28;20704;-76
2023/09/30 06:45:58;;;;;;;17.73;8.87;;;10.70;99.90;;;;;;4975631;28;20174;-76
2023/09/30 06:48:24;;;;;;;17.40;9.40;;;10.80;99.90;;;;;;4974336;28;20534;-76
2023/09/30 06:50:50;;;;;;;22.00;10.03;;;10.80;99.90;;;;;;4974243;28;20182;-75
2023/09/30 06:53:16;;;;;;;22.77;10.03;;;10.80;99.90;;;;;;4974046;28;20248;-75
2023/09/30 06:55:43;;;;;;;22.53;9.73;;;10.90;99.90;;;;;;4973041;28;20174;-76
2023/09/30 06:58:10;;;;;;;17.27;9.30;;;11.00;99.90;;;;;;4974052;28;20205;-76
2023/09/30 07:00:36;;;;;;;18.57;9.90;;;11.00;99.90;;;;;;4975514;28;20642;-76
2023/09/30 07:03:02;;;;;;;20.40;10.10;;;11.00;99.90;;;;;;4975263;28;20241;-76
2023/09/30 07:05:28;;;;;;;22.10;9.57;;;11.10;99.90;;;;;;4975306;28;20178;-76
2023/09/30 07:07:54;;;;;;;22.43;10.83;;;11.10;99.90;;;;;;4973901;28;20201;-76
2023/09/30 07:10:20;;;;;;;22.87;10.40;;;11.20;99.90;;;;;;4973856;28;20174;-76
2023/09/30 07:12:45;;;;;;;19.63;10.23;;;11.30;99.90;;;;;;4975088;28;20622;-76
2023/09/30 07:15:11;;;;;;;24.07;10.80;;;11.30;99.90;;;;;;4973662;28;20193;-76
2023/09/30 07:17:37;;;;;;;22.63;11.53;;;11.30;99.90;;;;;;4975275;28;20635;-76
2023/09/30 07:20:04;;;;;;;21.73;11.10;;;11.40;99.90;;;;;;4973790;28;20573;-76
2023/09/30 07:22:31;;;;;;;23.13;12.03;;;11.50;99.90;;;;;;4974987;28;20194;-76
2023/09/30 07:24:57;;;;;;;21.83;11.70;;;11.50;99.90;;;;;;4975038;28;20233;-76
2023/09/30 07:27:23;;;;;;;26.53;12.47;;;11.60;99.90;;;;;;4975136;28;20623;-75
2023/09/30 07:29:49;;;;;;;28.53;13.30;;;11.60;99.90;;;;;;4975319;28;20635;-76
2023/09/30 07:32:14;;;;;;;25.47;14.10;;;11.70;99.90;;;;;;4975077;28;20206;-76
2023/09/30 07:34:40;;;;;;;33.50;13.90;;;11.80;99.90;;;;;;4975352;28;20365;-76
2023/09/30 07:37:06;;;;;;;28.00;14.57;;;11.80;99.90;;;;;;4975067;28;20606;-76
2023/09/30 07:39:31;;;;;;;25.90;14.53;;;11.80;99.90;;;;;;4973600;28;20241;-76
2023/09/30 07:41:57;;;;;;;33.63;15.63;;;11.90;99.90;;;;;;4974803;28;20203;-76
2023/09/30 07:44:23;;;;;;;30.60;16.17;;;12.00;99.90;;;;;;4973435;28;20213;-76
2023/09/30 07:46:48;;;;;;;31.47;17.23;;;12.00;99.90;;;;;;4974676;28;20553;-76
2023/09/30 07:49:14;;;;;;;40.17;18.30;;;12.10;99.90;;;;;;4974635;28;20182;-76
2023/09/30 07:51:40;;;;;;;35.33;17.50;;;12.20;99.90;;;;;;4974881;28;20194;-76
2023/09/30 07:54:06;;;;;;;44.33;19.67;;;12.30;99.90;;;;;;4973134;28;20570;-76
2023/09/30 07:56:31;;;;;;;42.20;21.97;;;12.40;99.90;;;;;;4973187;28;20197;-76
2023/09/30 07:58:57;;;;;;;48.80;22.97;;;12.50;99.90;;;;;;4974529;28;20170;-76
2023/09/30 08:01:23;;;;;;;49.30;22.43;;;12.60;99.90;;;;;;4973084;28;20174;-76
2023/09/30 08:03:48;;;;;;;61.37;26.10;;;12.60;99.90;;;;;;4974466;28;20178;-76
2023/09/30 08:06:14;;;;;;;46.20;23.10;;;12.70;99.90;;;;;;4974339;28;20183;-76
2023/09/30 08:08:40;;;;;;;51.63;24.90;;;12.80;99.90;;;;;;4974331;28;20209;-76
2023/09/30 08:11:06;;;;;;;56.00;24.83;;;12.90;99.90;;;;;;4974251;28;20178;-76
2023/09/30 08:13:32;;;;;;;46.93;24.53;;;12.90;99.90;;;;;;4974132;28;20206;-76
2023/09/30 08:16:01;;;;;;;58.67;25.37;;;13.00;99.90;;;;;;4974213;28;20182;-76
2023/09/30 08:18:26;;;;;;;53.53;24.47;;;13.00;99.90;;;;;;4974168;28;20170;-76
2023/09/30 08:20:52;;;;;;;54.97;25.00;;;13.10;99.90;;;;;;4974148;28;20694;-76
2023/09/30 08:23:17;;;;;;;50.87;23.10;;;13.20;99.90;;;;;;4974053;28;20686;-76
2023/09/30 08:25:43;;;;;;;52.83;22.77;;;13.20;99.90;;;;;;4974208;28;20186;-76
2023/09/30 08:28:09;;;;;;;53.87;25.03;;;13.30;99.90;;;;;;4973910;28;20182;-76
2023/09/30 08:30:35;;;;;;;48.07;24.50;;;13.30;99.90;;;;;;4972578;28;20638;-76
2023/09/30 08:33:03;;;;;;;51.40;23.73;;;13.40;99.90;;;;;;4973820;28;20626;-76
2023/09/30 08:35:35;;;;;;;47.33;24.67;;;13.50;99.90;;;;;;4972622;28;20597;-76
2023/09/30 08:38:02;;;;;;;42.10;23.30;;;13.50;99.90;;;;;;4972754;28;20190;-76
2023/09/30 08:40:28;;;;;;;44.23;22.77;;;13.60;99.90;;;;;;4974163;28;20665;-76
2023/09/30 08:42:53;;;;;;;51.83;23.43;;;13.60;99.90;;;;;;4973737;28;20197;-76
2023/09/30 08:45:19;;;;;;;47.90;23.80;;;13.70;99.90;;;;;;4973866;28;20249;-76
2023/09/30 08:47:46;;;;;;;42.10;22.33;;;13.70;99.90;;;;;;4972392;28;20285;-77
2023/09/30 08:50:13;;;;;;;46.23;23.20;;;13.80;99.90;;;;;;4973778;28;20182;-76
2023/09/30 08:52:40;;;;;;;43.63;22.83;;;13.80;99.90;;;;;;4972268;28;20224;-76
2023/09/30 08:55:10;;;;;;;46.90;24.23;;;13.90;99.90;;;;;;4972714;28;20178;-77
2023/09/30 08:57:41;;;;;;;39.40;21.70;;;13.90;99.90;;;;;;4973815;28;20186;-76
2023/09/30 09:00:11;;;;;;;44.13;20.80;;;14.00;99.90;;;;;;4973943;28;20221;-76
2023/09/30 09:02:38;;;;;;;36.70;19.80;;;14.10;99.90;;;;;;4973533;28;20194;-76
2023/09/30 09:05:04;;;;;;;37.63;19.63;;;14.20;99.90;;;;;;4973853;28;20178;-76
2023/09/30 09:07:30;;;;;;;31.87;18.37;;;14.30;99.90;;;;;;4973573;28;20312;-76
2023/09/30 09:10:10;;;;;;;31.90;18.23;;;14.40;99.90;;;;;;4973589;28;20170;-76
2023/09/30 09:12:38;;;;;;;31.03;16.27;;;14.40;99.90;;;;;;4972125;28;20221;-77
2023/09/30 09:15:06;;;;;;;28.70;15.20;;;14.30;99.90;;;;;;4973499;28;20205;-77
2023/09/30 09:17:43;;;;;;;28.23;15.93;;;14.50;99.90;;;;;;4973447;28;20528;-76
2023/09/30 09:20:10;;;;;;;21.73;13.30;;;14.70;99.90;;;;;;4977485;28;20170;-77
2023/09/30 09:22:43;;;;;;;25.03;13.57;;;14.70;99.90;;;;;;4976082;28;20202;-76
2023/09/30 09:25:10;;;;;;;29.63;13.77;;;14.70;99.90;;;;;;4977460;28;20193;-77
2023/09/30 09:27:37;;;;;;;24.07;12.10;;;14.80;99.90;;;;;;4977613;28;20287;-76
2023/09/30 09:30:18;;;;;;;15.87;11.70;;;15.00;99.90;;;;;;4975998;28;20564;-76
2023/09/30 09:33:00;;;;;;;18.37;11.03;;;15.00;99.90;;;;;;4977189;28;20533;-77
2023/09/30 09:35:30;;;;;;;19.90;11.43;;;15.10;99.90;;;;;;4977253;28;20173;-76
2023/09/30 09:37:59;;;;;;;15.40;10.93;;;15.20;99.90;;;;;;4977076;28;20241;-77
2023/09/30 09:40:27;;;;;;;16.90;10.40;;;15.30;99.90;;;;;;4977460;28;20249;-77
2023/09/30 09:42:55;;;;;;;18.00;8.53;;;15.40;99.90;;;;;;4977686;28;20206;-77
2023/09/30 09:45:23;;;;;;;14.70;9.03;;;15.50;99.90;;;;;;4977256;28;20185;-77
2023/09/30 09:47:50;;;;;;;14.20;9.53;;;15.60;99.90;;;;;;4977044;28;20189;-77
2023/09/30 09:50:17;;;;;;;17.40;9.27;;;15.60;99.90;;;;;;4977185;28;20279;-77
2023/09/30 09:52:44;;;;;;;15.57;8.80;;;15.80;99.90;;;;;;4975549;28;20206;-76
2023/09/30 09:55:15;;;;;;;16.03;9.00;;;15.80;99.90;;;;;;4975561;28;20213;-76
2023/09/30 09:57:42;;;;;;;13.10;8.23;;;15.80;99.90;;;;;;4976892;28;20179;-76
2023/09/30 10:00:14;;;;;;;13.40;7.90;;;16.00;99.90;;;;;;4976922;28;20177;-77
2023/09/30 10:02:41;;;;;;;14.93;6.43;;;16.10;99.90;;;;;;4977276;28;20210;-77
2023/09/30 10:05:07;;;;;;;9.03;5.73;;;16.00;99.90;;;;;;4975425;28;20179;-76
2023/09/30 10:07:53;;;;;;;10.57;5.97;;;16.00;99.90;;;;;;4975421;28;20179;-77
2023/09/30 10:10:22;;;;;;;10.53;5.77;;;16.00;99.90;;;;;;4975381;28;20229;-77
2023/09/30 10:12:47;;;;;;;11.70;5.97;;;15.90;99.90;;;;;;4975174;28;20210;-76
2023/09/30 10:15:25;;;;;;;13.10;6.03;;;16.00;99.90;;;;;;4976512;28;20189;-77
2023/09/30 10:18:03;;;;;;;12.63;5.67;;;16.00;99.90;;;;;;4976612;28;20205;-76
2023/09/30 10:20:35;;;;;;;11.47;5.03;;;16.10;99.90;;;;;;4976652;28;20158;-77
2023/09/30 10:23:20;;;;;;;8.37;3.70;;;16.20;99.90;;;;;;4976337;28;20206;-77
2023/09/30 10:25:51;;;;;;;7.27;3.47;;;16.20;99.90;;;;;;4975133;28;20583;-77
2023/09/30 10:28:40;;;;;;;9.80;4.47;;;16.30;99.90;;;;;;4976727;28;20534;-77
2023/09/30 10:31:25;;;;;;;9.70;4.13;;;16.50;99.90;;;;;;4968713;28;20194;-77
2023/09/30 10:34:02;;;;;;;9.90;3.83;;;16.50;99.90;;;;;;4976606;28;20283;-77
2023/09/30 10:36:39;;;;;;;10.27;4.30;;;16.60;99.90;;;;;;4976477;28;20166;-76
2023/09/30 10:39:12;;;;;;;12.80;3.60;;;16.70;99.90;;;;;;4975988;28;20245;-76
2023/09/30 10:41:41;;;;;;;10.83;4.00;;;16.80;99.90;;;;;;4974714;28;20261;-77
2023/09/30 10:44:25;;;;;;;10.93;4.47;;;16.90;99.90;;;;;;4975981;28;20174;-77
2023/09/30 10:46:51;;;;;;;10.10;4.27;;;16.90;99.90;;;;;;4976202;28;20178;-77
2023/09/30 10:49:23;;;;;;;9.87;4.40;;;17.10;99.90;;;;;;4976148;28;20182;-77
2023/09/30 10:51:56;;;;;;;7.30;4.50;;;17.00;99.90;;;;;;4976244;28;20705;-77
2023/09/30 10:54:23;;;;;;;10.60;4.60;;;17.10;99.90;;;;;;4975820;28;20257;-76
2023/09/30 10:56:49;;;;;;;14.37;4.23;;;17.10;99.90;;;;;;4975968;28;20206;-76
2023/09/30 10:59:22;;;;;;;8.33;4.13;;;17.10;99.90;;;;;;4974599;28;20213;-76
2023/09/30 11:01:49;;;;;;;8.13;3.57;;;17.10;99.90;;;;;;4974357;28;20197;-76
2023/09/30 11:04:15;;;;;;;10.00;3.40;;;17.20;99.90;;;;;;4976061;28;20240;-77
2023/09/30 11:06:41;;;;;;;9.63;3.70;;;17.10;99.90;;;;;;4974342;28;20650;-77
2023/09/30 11:09:13;;;;;;;9.90;4.77;;;17.00;99.90;;;;;;4975682;28;20204;-77
2023/09/30 11:11:48;;;;;;;8.13;3.17;;;17.00;99.90;;;;;;4975713;28;20201;-77
2023/09/30 11:14:25;;;;;;;8.60;3.53;;;17.00;99.90;;;;;;4975761;28;20654;-76
2023/09/30 11:16:52;;;;;;;8.80;3.23;;;17.00;99.90;;;;;;4975651;28;20629;-77
2023/09/30 11:19:21;;;;;;;12.47;3.60;;;17.00;99.90;;;;;;4974358;28;20193;-77
2023/09/30 11:21:51;;;;;;;6.47;2.87;;;17.10;99.90;;;;;;4975395;28;20672;-76
2023/09/30 11:24:17;;;;;;;7.33;3.07;;;17.20;1.00;;;;;;4974054;28;20273;-76
2023/09/30 11:26:44;;;;;;;7.20;3.03;;;17.10;22.80;;;;;;4974024;28;20351;-76
2023/09/30 11:29:11;;;;;;;10.17;3.87;;;17.20;99.90;;;;;;4975731;28;20638;-76
2023/09/30 11:31:38;;;;;;;7.60;3.33;;;17.40;1.00;;;;;;4975152;28;20205;-76
2023/09/30 11:34:04;;;;;;;6.57;3.53;;;17.50;99.90;;;;;;4975093;28;20225;-76
2023/09/30 11:36:34;;;;;;;6.90;3.23;;;17.60;1.00;;;;;;4975065;28;20249;-76
2023/09/30 11:39:03;;;;;;;8.90;3.27;;;17.60;99.90;;;;;;4973665;28;20190;-76
2023/09/30 11:41:43;;;;;;;7.27;3.27;;;17.60;1.00;;;;;;4974451;28;20237;-76
2023/09/30 11:44:12;;;;;;;9.03;3.67;;;17.60;99.90;;;;;;4973616;28;20181;-76
2023/09/30 11:46:56;;;;;;;9.23;3.23;;;17.60;1.00;;;;;;4974866;28;20257;-78
2023/09/30 11:49:35;;;;;;;7.77;3.20;;;17.60;99.90;;;;;;4975083;28;20170;-76
2023/09/30 11:52:02;;;;;;;5.40;2.60;;;17.60;1.00;;;;;;4973341;28;20198;-76
2023/09/30 11:54:46;;;;;;;7.90;3.03;;;17.70;1.00;;;;;;4973195;28;20221;-76
2023/09/30 11:57:16;;;;;;;5.20;2.63;;;17.80;13.90;;;;;;4975098;28;20528;-76
2023/09/30 11:59:44;;;;;;;8.53;3.00;;;17.80;1.00;;;;;;4975257;28;20190;-76
2023/09/30 12:02:09;;;;;;;7.17;2.70;;;17.90;1.00;;;;;;4974584;28;20197;-77
2023/09/30 12:04:36;;;;;;;8.27;2.83;;;17.90;1.00;;;;;;4974663;28;20186;-76
2023/09/30 12:07:01;;;;;;;4.93;2.67;;;18.00;1.00;;;;;;4973127;28;20210;-76
2023/09/30 12:09:28;;;;;;;5.20;2.60;;;18.00;1.00;;;;;;4973047;28;20595;-76
2023/09/30 12:11:55;;;;;;;10.10;3.63;;;18.00;23.50;;;;;;4974302;28;20202;-77
2023/09/30 12:14:21;;;;;;;5.73;3.10;;;18.00;1.00;;;;;;4974322;28;20222;-77
2023/09/30 12:16:47;;;;;;;8.57;3.27;;;18.00;99.90;;;;;;4972981;28;20526;-77
2023/09/30 12:19:15;;;;;;;6.63;2.97;;;17.90;1.00;;;;;;4974909;28;20662;-76
2023/09/30 12:21:41;;;;;;;7.77;2.87;;;17.90;1.00;;;;;;4972949;28;20212;-76
2023/09/30 12:24:09;;;;;;;7.03;2.80;;;17.90;1.00;;;;;;4974181;28;20269;-76
2023/09/30 12:26:35;;;;;;;7.40;3.03;;;17.90;1.00;;;;;;4972820;28;20182;-76
2023/09/30 12:29:01;;;;;;;8.57;2.80;;;18.00;1.00;;;;;;4974056;28;20643;-76
2023/09/30 12:31:26;;;;;;;6.27;2.70;;;18.10;41.90;;;;;;4974044;28;20179;-77
2023/09/30 12:33:53;;;;;;;7.67;2.70;;;18.20;1.00;;;;;;4972696;28;20205;-76
2023/09/30 12:36:19;;;;;;;8.43;2.70;;;18.30;1.00;;;;;;4972798;28;20708;-77
2023/09/30 12:38:45;;;;;;;5.20;2.70;;;18.50;99.90;;;;;;4973824;28;20197;-77